Flight Track Log - Related Links

Times and Time Zones

All times are in EDT time to prevent confusion due to time zone crossing. See the DAL221 flight status page for this flight to view local times or setup timezone preferences in your user account.

Time Position Orientation Groundspeed Altitude Reporting Facility
EDT Latitude Longitude Course Direction KTS MPH feet Rate Location/Type
Sun 09:15:41 PM 33.6350 -84.4180 270° West 115 132  Level FlightAware ADS-B
Sun 09:16:07 PM 33.6350 -84.4400 270° West 181 208 1,100 2,609 Climbing FlightAware ADS-B
Sun 09:16:27 PM 33.6350 -84.4590 270° West 177 204 2,000 2,167 Climbing FlightAware ADS-B
Sun 09:16:43 PM 33.6350 -84.4760 270° West 189 217 2,400 1,333 Climbing FlightAware ADS-B
Sun 09:17:03 PM 33.6350 -84.5000 270° West 216 249 2,800 1,050 Climbing FlightAware ADS-B
Sun 09:17:23 PM 33.6340 -84.5240 267° West 243 280 3,100 1,235 Climbing FlightAware ADS-B
Sun 09:17:37 PM 33.6350 -84.5440 273° West 256 295 3,500 2,118 Climbing FlightAware ADS-B
Sun 09:17:57 PM 33.6350 -84.5730 270° West 265 305 4,300 2,571 Climbing FlightAware ADS-B
Sun 09:18:19 PM 33.6290 -84.6040 257° West 271 312 5,300 2,800 Climbing FlightAware ADS-B
Sun 09:18:27 PM 33.6230 -84.6140 234° Southwest 277 319 5,700 2,571 Climbing FlightAware ADS-B
Sun 09:18:33 PM 33.6170 -84.6210 224° Southwest 281 323 5,900 2,625 Climbing FlightAware ADS-B
Sun 09:18:43 PM 33.6050 -84.6280 206° Southwest 285 328 6,400 2,400 Climbing FlightAware ADS-B
Sun 09:19:03 PM 33.5810 -84.6380 199° South 293 337 7,100 2,250 Climbing FlightAware ADS-B
Sun 09:19:23 PM 33.5540 -84.6450 192° South 299 344 7,900 2,375 Climbing FlightAware ADS-B
Sun 09:19:51 PM 33.5170 -84.6330 165° South 303 349 9,000 2,333 Climbing FlightAware ADS-B
Sun 09:19:59 PM 33.5080 -84.6230 137° Southeast 301 346 9,300 1,714 Climbing FlightAware ADS-B
Sun 09:20:19 PM 33.4910 -84.5970 128° Southeast 307 353 9,800 1,000 Climbing FlightAware ADS-B
Sun 09:20:35 PM 33.4760 -84.5740 128° Southeast 325 374 9,900 1,174 Climbing FlightAware ADS-B
Sun 09:21:05 PM 33.4480 -84.5300 127° Southeast 340 391 10,700 1,343 Climbing FlightAware ADS-B
Sun 09:21:42 PM 33.4120 -84.4750 128° Southeast 370 426 11,400 1,397 Climbing FlightAware ADS-B
Sun 09:22:18 PM 33.3720 -84.4130 128° Southeast 388 447 12,400 1,917 Climbing FlightAware ADS-B
Sun 09:22:54 PM 33.3310 -84.3510 128° Southeast 396 456 13,700 2,000 Climbing FlightAware ADS-B
Sun 09:23:30 PM 33.2910 -84.2890 128° Southeast 402 463 14,800 2,029 Climbing FlightAware ADS-B
Sun 09:24:02 PM 33.2540 -84.2330 128° Southeast 404 465 16,000 2,029 Climbing FlightAware ADS-B
Sun 09:24:38 PM 33.2120 -84.1700 129° Southeast 409 471 17,100 1,750 Climbing FlightAware ADS-B
Sun 09:25:14 PM 33.1700 -84.1040 127° Southeast 418 481 18,100 1,667 Climbing FlightAware ADS-B
Sun 09:25:50 PM 33.1260 -84.0380 129° Southeast 423 487 19,100 1,588 Climbing FlightAware ADS-B
Sun 09:26:22 PM 33.0860 -83.9810 130° Southeast 430 495 19,900 1,500 Climbing FlightAware ADS-B
Sun 09:26:58 PM 33.0290 -83.9280 142° Southeast 436 502 20,800 1,417 Climbing FlightAware ADS-B
Sun 09:27:34 PM 32.9690 -83.8780 145° Southeast 444 511 21,600 1,324 Climbing FlightAware ADS-B
Sun 09:28:06 PM 32.9150 -83.8330 145° Southeast 449 517 22,300 870 Climbing FlightAware ADS-B
Sun 09:28:43 PM 32.8610 -83.7880 145° Southeast 449 517 22,600 247 Climbing FlightAware ADS-B
Sun 09:29:19 PM 32.8080 -83.7440 145° Southeast 449 517 22,600  Level FlightAware ADS-B
Sun 09:29:55 PM 32.7560 -83.7010 145° Southeast 449 517 22,600  Level FlightAware ADS-B
Sun 09:30:31 PM 32.7040 -83.6580 145° Southeast 449 517 22,600 2,955 Level FlightAware ADS-B
Sun 09:31:02 PM 32.6160 -83.5720 141° Southeast 471 542 25,900 3,545 Climbing FlightAware ADS-B
Sun 09:31:37 PM 32.5580 -83.5140 140° Southeast 475 547 26,500 486 Climbing FlightAware ADS-B
Sun 09:32:16 PM 32.5030 -83.4570 139° Southeast 475 547 26,500  Level FlightAware ADS-B
Sun 09:32:52 PM 32.4520 -83.4050 139° Southeast 475 547 26,500 1,342 Level FlightAware ADS-B
Sun 09:33:32 PM 32.3670 -83.3220 140° Southeast 482 555 28,200 1,342 Climbing FlightAware ADS-B
Sun 09:34:08 PM 32.3160 -83.2690 139° Southeast 482 555 28,200 1,662 Level FlightAware ADS-B
Sun 09:34:37 PM 32.2510 -83.2080 142° Southeast 478 550 30,000 1,683 Climbing FlightAware ADS-B
Sun 09:35:30 PM 32.1680 -83.1240 139° Southeast 480 552 30,500 330 Climbing FlightAware ADS-B
Sun 09:36:08 PM 32.1140 -83.0690 139° Southeast 480 552 30,500  Level FlightAware ADS-B
Sun 09:36:44 PM 32.0620 -83.0160 139° Southeast 480 552 30,500  Level FlightAware ADS-B
Sun 09:37:20 PM 32.0110 -82.9640 139° Southeast 480 552 30,500  Level FlightAware ADS-B
Sun 09:37:56 PM 31.9600 -82.9110 139° Southeast 480 552 30,500  Level FlightAware ADS-B
Sun 09:38:32 PM 31.9080 -82.8590 140° Southeast 480 552 30,500  Level FlightAware ADS-B
Sun 09:39:09 PM 31.8560 -82.8050 139° Southeast 480 552 30,500  Level FlightAware ADS-B
Sun 09:39:45 PM 31.8040 -82.7520 139° Southeast 480 552 30,500  Level FlightAware ADS-B
Sun 09:40:21 PM 31.7530 -82.7000 139° Southeast 480 552 30,500  Level FlightAware ADS-B
Sun 09:40:57 PM 31.7020 -82.6470 139° Southeast 480 552 30,500  Level FlightAware ADS-B
Sun 09:41:33 PM 31.6510 -82.5950 139° Southeast 480 552 30,500 3,043 Level FlightAware ADS-B
Sun 09:42:06 PM 31.4480 -82.4990 158° South 487 560 34,000 2,877 Climbing FlightAware ADS-B
Sun 09:42:46 PM 31.3860 -82.4460 144° Southeast 487 560 34,000  Level FlightAware ADS-B
Sun 09:43:22 PM 31.3300 -82.3990 144° Southeast 487 560 34,000  Level FlightAware ADS-B
Sun 09:43:52 PM 31.2530 -82.3390 146° Southeast 485 558 34,000  Level FlightAware ADS-B
Sun 09:44:33 PM 31.1830 -82.2810 145° Southeast 484 557 34,000  Level FlightAware ADS-B
Sun 09:45:10 PM 31.1260 -82.2330 144° Southeast 484 557 34,000  Level FlightAware ADS-B
Sun 09:45:46 PM 31.0700 -82.1860 144° Southeast 484 557 34,000  Level FlightAware ADS-B
Sun 09:46:21 PM 30.9780 -82.1140 146° Southeast 483 556 34,000  Level FlightAware ADS-B
Sun 09:46:56 PM 30.9150 -82.0620 145° Southeast 482 555 34,000  Level FlightAware ADS-B
Sun 09:47:33 PM 30.8470 -82.0070 145° Southeast 481 554 34,000  Level FlightAware ADS-B
Sun 09:48:04 PM 30.7890 -81.9600 145° Southeast 481 554 34,000  Level FlightAware ADS-B
Sun 09:48:41 PM 30.7280 -81.9100 145° Southeast 479 551 34,000  Level FlightAware ADS-B
Sun 09:49:18 PM 30.6580 -81.8540 145° Southeast 478 550 34,000  Level FlightAware ADS-B
Sun 09:49:57 PM 30.5870 -81.7970 145° Southeast 477 549 34,000  Level FlightAware ADS-B
Sun 09:50:34 PM 30.5200 -81.7400 144° Southeast 475 547 34,000  Level FlightAware ADS-B
Sun 09:51:05 PM 30.4640 -81.6930 144° Southeast 474 545 34,000  Level FlightAware ADS-B
Sun 09:51:43 PM 30.3990 -81.6390 144° Southeast 474 545 34,000  Level FlightAware ADS-B
Sun 09:52:16 PM 30.3380 -81.5880 144° Southeast 474 545 34,000  Level FlightAware ADS-B
Sun 09:52:52 PM 30.2740 -81.5360 145° Southeast 474 545 34,000  Level FlightAware ADS-B
Sun 09:53:28 PM 30.2090 -81.4810 144° Southeast 474 545 34,000  Level FlightAware ADS-B
Sun 09:54:01 PM 30.1510 -81.4330 144° Southeast 474 545 34,000  Level FlightAware ADS-B
Sun 09:54:35 PM 30.0920 -81.3790 142° Southeast 471 542 34,000  Level FlightAware ADS-B
Sun 09:55:11 PM 30.0380 -81.3280 141° Southeast 471 542 34,000  Level FlightAware ADS-B
Sun 09:55:47 PM 29.9690 -81.2650 142° Southeast 472 543 34,000  Level FlightAware ADS-B
Sun 09:56:23 PM 29.9080 -81.2090 141° Southeast 473 544 34,000  Level FlightAware ADS-B
Sun 09:56:59 PM 29.8460 -81.1530 142° Southeast 473 544 34,000  Level FlightAware ADS-B
Sun 09:57:35 PM 29.7840 -81.0970 142° Southeast 473 544 34,000  Level FlightAware ADS-B
Sun 09:58:08 PM 29.7280 -81.0450 141° Southeast 474 545 34,000  Level FlightAware ADS-B
Sun 09:58:43 PM 29.6670 -80.9900 142° Southeast 474 545 34,000  Level FlightAware ADS-B
Sun 09:59:19 PM 29.6040 -80.9340 142° Southeast 475 547 34,000  Level FlightAware ADS-B
Sun 09:59:52 PM 29.5480 -80.8830 142° Southeast 475 547 34,000  Level FlightAware ADS-B
Sun 10:00:29 PM 29.4820 -80.8230 142° Southeast 475 547 34,000  Level FlightAware ADS-B
Sun 10:01:05 PM 29.4220 -80.7690 142° Southeast 474 545 34,000  Level FlightAware ADS-B
Sun 10:01:36 PM 29.3670 -80.7200 142° Southeast 474 545 34,000  Level FlightAware ADS-B
Sun 10:02:12 PM 29.3070 -80.6650 141° Southeast 473 544 34,000  Level FlightAware ADS-B
Sun 10:02:50 PM 29.2410 -80.6060 142° Southeast 473 544 34,000  Level FlightAware ADS-B
Sun 10:03:25 PM 29.1800 -80.5510 142° Southeast 473 544 34,000  Level FlightAware ADS-B
Sun 10:03:57 PM 29.1260 -80.5030 142° Southeast 473 544 34,000  Level FlightAware ADS-B
Sun 10:04:33 PM 29.0650 -80.4480 142° Southeast 473 544 34,000  Level FlightAware ADS-B
Sun 10:05:13 PM 28.9970 -80.3880 142° Southeast 473 544 34,000  Level FlightAware ADS-B
Sun 10:05:51 PM 28.9380 -80.3340 141° Southeast 473 544 34,000  Level FlightAware ADS-B
Sun 10:06:29 PM 28.8830 -80.2830 141° Southeast 473 544 34,000  Level FlightAware ADS-B
Sun 10:07:05 PM 28.8310 -80.2350 141° Southeast 473 544 34,000  Level FlightAware ADS-B
Sun 10:07:37 PM 28.7460 -80.1640 144° Southeast 473 544 34,000  Level FlightAware ADS-B
Sun 10:08:17 PM 28.6780 -80.1040 142° Southeast 473 544 34,000  Level FlightAware ADS-B
Sun 10:09:01 PM 28.6170 -80.0510 143° Southeast 473 544 34,000  Level FlightAware ADS-B
Sun 10:09:47 PM 28.5240 -79.9680 142° Southeast 469 540 34,000  Level FlightAware ADS-B
Sun 10:10:27 PM 28.4530 -79.9060 142° Southeast 471 542 34,000  Level FlightAware ADS-B
Sun 10:10:57 PM 28.4000 -79.8590 142° Southeast 472 543 34,000  Level FlightAware ADS-B
Sun 10:11:42 PM 28.3200 -79.7900 143° Southeast 474 545 34,000 300 Level FlightAware ADS-B
Sun 10:12:17 PM 28.2590 -79.7350 142° Southeast 479 551 34,400 800 Climbing FlightAware ADS-B
Sun 10:12:57 PM 28.2000 -79.6660 134° Southeast 479 551 35,000 514 Climbing FlightAware ADS-B
Sun 10:13:27 PM 28.1560 -79.6020 128° Southeast 479 551 35,000  Level FlightAware ADS-B
Sun 10:14:02 PM 28.1140 -79.5390 127° Southeast 481 554 35,000  Level FlightAware ADS-B
Sun 10:14:37 PM 28.0580 -79.4680 132° Southeast 482 555 35,000  Level FlightAware ADS-B
Sun 10:15:12 PM 27.9980 -79.4140 142° Southeast 474 545 35,000  Level FlightAware ADS-B
Sun 10:15:47 PM 27.9370 -79.3620 143° Southeast 472 543 35,000  Level FlightAware ADS-B
Sun 10:16:23 PM 27.8730 -79.3070 143° Southeast 471 542 35,000  Level FlightAware ADS-B
Sun 10:17:02 PM 27.8020 -79.2460 143° Southeast 469 540 35,000  Level FlightAware ADS-B
Sun 10:17:42 PM 27.7320 -79.1880 144° Southeast 466 536 35,000  Level FlightAware ADS-B
Sun 10:18:17 PM 27.6720 -79.1360 142° Southeast 464 534 35,000  Level FlightAware ADS-B
Sun 10:18:52 PM 27.6110 -79.0850 143° Southeast 464 534 35,000  Level FlightAware ADS-B
Sun 10:19:29 PM 27.5450 -79.0290 143° Southeast 471 542 35,000  Level FlightAware ADS-B
Sun 10:20:01 PM 27.4880 -78.9800 143° Southeast 472 543 35,000  Level FlightAware ADS-B
Sun 10:20:37 PM 27.4240 -78.9260 143° Southeast 473 544 35,000  Level FlightAware ADS-B
Sun 10:21:16 PM 27.3560 -78.8690 143° Southeast 474 545 35,000  Level FlightAware ADS-B
Sun 10:21:50 PM 27.2970 -78.8190 143° Southeast 475 547 35,000  Level FlightAware ADS-B
Sun 10:22:22 PM 27.2410 -78.7720 143° Southeast 476 548 35,000  Level FlightAware ADS-B
Sun 10:22:59 PM 27.1740 -78.7150 143° Southeast 477 549 35,000  Level FlightAware ADS-B
Sun 10:23:34 PM 27.1150 -78.6670 144° Southeast 471 542 35,000  Level FlightAware ADS-B
Sun 10:24:04 PM 27.0590 -78.6270 148° Southeast 469 540 35,000  Level FlightAware ADS-B
Sun 10:24:40 PM 26.9900 -78.5820 150° Southeast 475 547 35,000  Level FlightAware ADS-B
Sun 10:25:15 PM 26.9210 -78.5440 154° Southeast 466 536 35,000  Level FlightAware ADS-B
Sun 10:25:50 PM 26.8520 -78.5070 154° Southeast 467 537 35,000  Level FlightAware ADS-B
Sun 10:26:30 PM 26.7710 -78.4640 155° Southeast 468 539 35,000  Level FlightAware ADS-B
Sun 10:27:00 PM 26.7160 -78.4340 154° Southeast 467 537 35,000  Level FlightAware ADS-B
Sun 10:27:35 PM 26.6390 -78.3940 155° Southeast 475 547 35,000  Level FlightAware ADS-B
Sun 10:28:25 PM 26.5510 -78.3470 154° Southeast 466 536 35,000  Level FlightAware ADS-B
Sun 10:29:01 PM 26.4820 -78.3080 153° Southeast 466 536 35,000  Level FlightAware ADS-B
Sun 10:29:45 PM 26.4020 -78.2610 152° Southeast 474 545 35,000  Level FlightAware ADS-B
Sun 10:30:19 PM 26.3220 -78.2100 150° Southeast 479 551 35,000  Level FlightAware ADS-B
Sun 10:30:55 PM 26.2590 -78.1600 145° Southeast 480 552 35,000  Level FlightAware ADS-B
Sun 10:31:34 PM 26.1880 -78.1010 143° Southeast 473 544 35,000  Level FlightAware ADS-B
Sun 10:32:11 PM 26.1260 -78.0470 142° Southeast 473 544 35,000  Level FlightAware ADS-B
Sun 10:32:44 PM 26.0650 -77.9950 143° Southeast 474 545 35,000  Level FlightAware ADS-B
Sun 10:33:20 PM 26.0020 -77.9410 142° Southeast 474 545 35,000  Level FlightAware ADS-B
Sun 10:33:54 PM 25.9490 -77.8950 142° Southeast 474 545 35,000  Level FlightAware ADS-B
Sun 10:34:30 PM 25.8800 -77.8360 142° Southeast 474 545 35,000  Level FlightAware ADS-B
Sun 10:35:04 PM 25.8220 -77.7870 143° Southeast 474 545 35,000  Level FlightAware ADS-B
Sun 10:35:58 PM 25.7390 -77.7140 142° Southeast 473 544 35,000  Level FlightAware ADS-B
Sun 10:36:34 PM 25.6870 -77.6680 141° Southeast 473 544 35,000  Level FlightAware ADS-B
Sun 10:37:10 PM 25.6350 -77.6210 141° Southeast 473 544 35,000  Level FlightAware ADS-B
Sun 10:37:46 PM 25.5830 -77.5740 141° Southeast 473 544 35,000  Level FlightAware ADS-B
Sun 10:38:22 PM 25.5310 -77.5270 141° Southeast 473 544 35,000  Level FlightAware ADS-B
Sun 10:38:58 PM 25.4790 -77.4810 141° Southeast 473 544 35,000  Level FlightAware ADS-B
Sun 10:39:34 PM 25.4270 -77.4340 141° Southeast 473 544 35,000  Level FlightAware ADS-B
Sun 10:40:10 PM 25.3740 -77.3870 141° Southeast 473 544 35,000  Level FlightAware ADS-B
Sun 10:40:46 PM 25.3220 -77.3410 141° Southeast 473 544 35,000  Level FlightAware ADS-B
Sun 10:41:22 PM 25.2700 -77.2940 141° Southeast 473 544 35,000  Level FlightAware ADS-B
Sun 10:41:59 PM 25.2170 -77.2460 141° Southeast 473 544 35,000  Level FlightAware ADS-B
Sun 10:42:35 PM 25.1650 -77.2000 141° Southeast 473 544 35,000  Level FlightAware ADS-B
Sun 10:43:12 PM 25.1110 -77.1520 141° Southeast 473 544 35,000  Level FlightAware ADS-B
Sun 10:43:49 PM 25.0580 -77.1040 141° Southeast 473 544 35,000  Level FlightAware ADS-B
Sun 10:44:25 PM 25.0060 -77.0570 141° Southeast 473 544 35,000  Level FlightAware ADS-B
Sun 10:45:01 PM 24.9540 -77.0110 141° Southeast 473 544 35,000  Level FlightAware ADS-B
Sun 10:46:14 PM 24.6425 -76.7969 141° Southeast 484 557 35,000  Level Miami Center
Sun 10:47:14 PM 24.5358 -76.7081 143° Southeast 484 557 35,000  Level Miami Center
Sun 10:48:14 PM 24.4289 -76.6214 144° Southeast 484 557 35,000  Level Miami Center
Sun 10:49:16 PM 24.3158 -76.5236 142° Southeast 479 551 35,000 -50 Level Miami Center
Sun 10:50:15 PM 24.2050 -76.4350 144° Southeast 485 558 34,900  Descending Miami Center
Sun 10:51:16 PM 24.0961 -76.3467 143° Southeast 485 558 35,000 50 Climbing Miami Center
Sun 10:52:14 PM 23.9911 -76.2583 142° Southeast 485 558 35,000  Level Miami Center
Sun 10:53:14 PM 23.8842 -76.1747 144° Southeast 485 558 35,000  Level Miami Center
Sun 10:54:14 PM 23.7772 -76.0869 143° Southeast 485 558 35,000  Level Miami Center
Sun 10:55:17 PM 23.6722 -75.9989 142° Southeast 485 558 35,000  Level Miami Center
Sun 10:56:14 PM 23.5672 -75.9158 144° Southeast 485 558 35,000  Level Miami Center
Sun 10:57:15 PM 23.4664 -75.8306 142° Southeast 486 559 35,000  Level Miami Center
Sun 10:58:16 PM 23.3550 -75.7456 145° Southeast 492 566 35,000  Level Miami Center
Sun 10:59:14 PM 23.2500 -75.6581 143° Southeast 492 566 35,000  Level Miami Center
Sun 11:00:14 PM 23.1447 -75.5733 143° Southeast 481 554 35,000  Level Miami Center
Sun 11:01:14 PM 23.0372 -75.4864 143° Southeast 481 554 35,000  Level Miami Center
Sun 11:02:14 PM 22.9322 -75.4039 144° Southeast 481 554 35,000  Level Miami Center
Sun 11:03:17 PM 22.8267 -75.3194 144° Southeast 481 554 35,000  Level Miami Center
Sun 11:04:14 PM 22.7214 -75.2353 144° Southeast 481 554 35,000  Level Miami Center
Sun 11:05:14 PM 22.6161 -75.1511 144° Southeast 476 548 35,000  Level Miami Center
Sun 11:06:17 PM 22.5150 -75.0714 144° Southeast 476 548 35,000  Level Miami Center
Sun 11:07:16 PM 22.3989 -74.9808 144° Southeast 471 542 35,000  Level Miami Center
Sun 11:08:14 PM 22.2975 -74.8994 143° Southeast 466 536 35,000  Level Miami Center
Sun 11:09:16 PM 22.1942 -74.8178 144° Southeast 461 531 35,000  Level Miami Center
Sun 11:10:15 PM 22.0906 -74.7344 143° Southeast 461 531 35,000  Level Miami Center
Sun 11:11:15 PM 21.9872 -74.6553 145° Southeast 456 525 35,000  Level Miami Center
Sun 11:12:14 PM 21.8836 -74.5767 145° Southeast 456 525 35,000  Level Miami Center
Sun 11:13:15 PM 21.7803 -74.4956 144° Southeast 461 531 35,000  Level Miami Center
Sun 11:14:16 PM 21.6911 -74.4144 140° Southeast 461 531 35,000  Level Miami Center
Sun 11:15:15 PM 21.5875 -74.3339 144° Southeast 461 531 35,000  Level Miami Center
Sun 11:17:00 PM 21.4094 -74.1956 144° Southeast  Level FlightAware Approximate
Sun 11:24:00 PM 20.6961 -73.6458 144° Southeast  Level FlightAware Approximate
Sun 11:25:00 PM 20.5940 -73.5677 144° Southeast  Level FlightAware Approximate
Sun 11:26:00 PM 20.4919 -73.4897 144° Southeast  Level FlightAware Approximate
Sun 11:27:00 PM 20.3898 -73.4118 144° Southeast  Level FlightAware Approximate
Sun 11:28:00 PM 20.2876 -73.3339 144° Southeast  Level FlightAware Approximate
Sun 11:29:00 PM 20.1854 -73.2562 144° Southeast  Level FlightAware Approximate
Sun 11:30:00 PM 20.0858 -73.1751 141° Southeast  Level FlightAware Approximate
Sun 11:31:00 PM 19.9884 -73.0908 143° Southeast  Level FlightAware Approximate
Sun 11:32:00 PM 19.8879 -73.0107 143° Southeast  Level FlightAware Approximate
Sun 11:33:00 PM 19.7874 -72.9308 143° Southeast  Level FlightAware Approximate
Sun 11:34:00 PM 19.6868 -72.8510 143° Southeast  Level FlightAware Approximate
Sun 11:35:00 PM 19.5862 -72.7713 143° Southeast  Level FlightAware Approximate
Sun 11:36:00 PM 19.4856 -72.6917 143° Southeast  Level FlightAware Approximate
Sun 11:37:00 PM 19.3849 -72.6121 143° Southeast  Level FlightAware Approximate
Sun 11:38:00 PM 19.2842 -72.5327 143° Southeast  Level FlightAware Approximate
Sun 11:39:00 PM 19.1835 -72.4534 143° Southeast  Level FlightAware Approximate
Sun 11:40:00 PM 19.0827 -72.3742 143° Southeast  Level FlightAware Approximate
Sun 11:41:00 PM 18.9819 -72.2950 143° Southeast  Level FlightAware Approximate
Sun 11:42:00 PM 18.8810 -72.2160 143° Southeast  Level FlightAware Approximate
Sun 11:43:00 PM 18.7802 -72.1370 143° Southeast  Level FlightAware Approximate
Sun 11:44:00 PM 18.6793 -72.0582 143° Southeast  Level FlightAware Approximate
Sun 11:45:00 PM 18.5784 -71.9794 143° Southeast  Level FlightAware Approximate
Sun 11:46:00 PM 18.4803 -71.8969 137° Southeast  Level FlightAware Approximate
Sun 11:47:00 PM 18.3789 -71.8193 148° Southeast  Level FlightAware Approximate
Sun 11:48:00 PM 18.2728 -71.7486 148° Southeast  Level FlightAware Approximate
Sun 11:48:50 PM 18.1270 -71.5800 143° Southeast 461 531 35,000  Level FlightAware ADS-B
Sun 11:49:00 PM 18.1709 -71.6715 143° Southeast  Level FlightAware Approximate
Sun 11:49:22 PM 18.0610 -71.5580 162° South 460 529 35,000  Level FlightAware ADS-B
Sun 11:50:02 PM 17.9790 -71.5450 171° South 459 528 35,000  Level FlightAware ADS-B
Sun 11:50:48 PM 17.8900 -71.5290 170° South 459 528 35,000  Level FlightAware ADS-B
Sun 11:51:44 PM 17.7770 -71.5080 170° South 460 529 35,000  Level FlightAware ADS-B
Sun 11:52:30 PM 17.6950 -71.4910 169° South 460 529 35,000  Level FlightAware ADS-B
Sun 11:53:06 PM 17.6310 -71.4780 169° South 460 529 35,000  Level FlightAware ADS-B
Sun 11:53:42 PM 17.5670 -71.4650 169° South 460 529 35,000  Level FlightAware ADS-B
Sun 11:54:18 PM 17.5030 -71.4520 169° South 460 529 35,000  Level FlightAware ADS-B
Sun 11:54:55 PM 17.4380 -71.4390 169° South 460 529 35,000  Level FlightAware ADS-B
Sun 11:55:31 PM 17.3740 -71.4260 169° South 460 529 35,000  Level FlightAware ADS-B
Sun 11:56:08 PM 17.3080 -71.4120 169° South 460 529 35,000  Level FlightAware ADS-B
Sun 11:56:44 PM 17.2440 -71.3990 169° South 460 529 35,000  Level FlightAware ADS-B
Sun 11:57:20 PM 17.1800 -71.3860 169° South 460 529 35,000  Level FlightAware ADS-B
Sun 11:57:56 PM 17.1160 -71.3730 169° South 460 529 35,000  Level FlightAware ADS-B
Sun 11:58:32 PM 17.0520 -71.3600 169° South 460 529 35,000  Level FlightAware ADS-B
Sun 11:59:08 PM 16.9880 -71.3470 169° South 460 529 35,000  Level FlightAware ADS-B
Sun 11:59:44 PM 16.9240 -71.3340 169° South 460 529 35,000  Level FlightAware ADS-B
Mon 12:00:20 AM 16.8600 -71.3210 169° South 460 529 35,000  Level FlightAware ADS-B
Mon 12:00:57 AM 16.7950 -71.3080 169° South 460 529 35,000  Level FlightAware ADS-B
Mon 12:03:00 AM 16.5880 -71.1484 144° Southeast  Level Estimated
Mon 12:04:00 AM 16.4870 -71.0707 144° Southeast  Level Estimated
Mon 12:05:00 AM 16.3859 -70.9930 144° Southeast  Level Estimated
Mon 12:06:00 AM 16.2848 -70.9155 144° Southeast  Level Estimated
Mon 12:07:00 AM 16.1837 -70.8380 144° Southeast  Level Estimated
Mon 12:08:00 AM 16.0826 -70.7606 144° Southeast  Level Estimated
Mon 12:09:00 AM 15.9814 -70.6832 144° Southeast  Level Estimated
Mon 12:10:00 AM 15.8802 -70.6060 144° Southeast  Level Estimated
Mon 12:11:00 AM 15.7790 -70.5288 144° Southeast  Level Estimated
Mon 12:12:00 AM 15.6777 -70.4517 144° Southeast  Level Estimated
Mon 12:12:46 AM 15.0620 -71.3200 144° Southeast 472 543 35,000  Level FlightAware ADS-B
Mon 12:13:24 AM 14.9970 -71.2900 156° South 472 543 35,000  Level FlightAware ADS-B
Mon 12:13:31 AM 14.9830 -71.2660 121° Southeast 468 539 35,000  Level FlightAware ADS-B
Mon 12:14:01 AM 14.9330 -71.2260 142° Southeast 468 539 35,000  Level FlightAware ADS-B
Mon 12:14:36 AM 14.8700 -71.1760 143° Southeast 461 531 35,000  Level FlightAware ADS-B
Mon 12:15:11 AM 14.8160 -71.1210 135° Southeast 466 536 35,000  Level FlightAware ADS-B
Mon 12:15:47 AM 14.7710 -71.0680 131° Southeast 465 535 35,000  Level FlightAware ADS-B
Mon 12:16:22 AM 14.7240 -70.9940 123° Southeast 463 533 35,000  Level FlightAware ADS-B
Mon 12:16:57 AM 14.6860 -70.9280 121° Southeast 460 529 35,000  Level FlightAware ADS-B
Mon 12:17:32 AM 14.6480 -70.8600 120° Southeast 464 534 35,000  Level FlightAware ADS-B
Mon 12:18:07 AM 14.6120 -70.7930 119° Southeast 465 535 35,000  Level FlightAware ADS-B
Mon 12:18:42 AM 14.5750 -70.7260 120° Southeast 464 534 35,000  Level FlightAware ADS-B
Mon 12:19:18 AM 14.5380 -70.6560 119° Southeast 464 534 35,000  Level FlightAware ADS-B
Mon 12:19:52 AM 14.5010 -70.5890 120° Southeast 463 533 35,000  Level FlightAware ADS-B
Mon 12:20:28 AM 14.4640 -70.5210 119° Southeast 462 532 35,000  Level FlightAware ADS-B
Mon 12:21:02 AM 14.4280 -70.4550 119° Southeast 462 532 35,000  Level FlightAware ADS-B
Mon 12:21:38 AM 14.3910 -70.3870 119° Southeast 460 529 35,000  Level FlightAware ADS-B
Mon 12:22:12 AM 14.3550 -70.3210 119° Southeast 459 528 35,000  Level FlightAware ADS-B
Mon 12:22:48 AM 14.3180 -70.2530 119° Southeast 460 529 35,000  Level FlightAware ADS-B
Mon 12:23:23 AM 14.2810 -70.1850 119° Southeast 459 528 35,000  Level FlightAware ADS-B
Mon 12:23:59 AM 14.2440 -70.1180 120° Southeast 459 528 35,000  Level FlightAware ADS-B
Mon 12:24:33 AM 14.2070 -70.0510 120° Southeast 458 527 35,000  Level FlightAware ADS-B
Mon 12:25:09 AM 14.1700 -69.9840 120° Southeast 458 527 35,000  Level FlightAware ADS-B
Mon 12:25:43 AM 14.1350 -69.9200 119° Southeast 458 527 35,000  Level FlightAware ADS-B
Mon 12:26:19 AM 14.0980 -69.8520 119° Southeast 458 527 35,000  Level FlightAware ADS-B
Mon 12:26:53 AM 14.0620 -69.7860 119° Southeast 458 527 35,000  Level FlightAware ADS-B
Mon 12:27:28 AM 14.0240 -69.7180 120° Southeast 458 527 35,000  Level FlightAware ADS-B
Mon 12:28:11 AM 13.9820 -69.6410 119° Southeast 458 527 35,000  Level FlightAware ADS-B
Mon 12:28:45 AM 13.9450 -69.5740 120° Southeast 458 527 35,000  Level FlightAware ADS-B
Mon 12:29:19 AM 13.9090 -69.5090 120° Southeast 458 527 35,000  Level FlightAware ADS-B
Mon 12:29:54 AM 13.8720 -69.4420 120° Southeast 458 527 35,000  Level FlightAware ADS-B
Mon 12:30:29 AM 13.8360 -69.3770 120° Southeast 457 526 35,000  Level FlightAware ADS-B
Mon 12:31:04 AM 13.7990 -69.3100 120° Southeast 458 527 35,000  Level FlightAware ADS-B
Mon 12:31:39 AM 13.7630 -69.2450 120° Southeast 458 527 35,000  Level FlightAware ADS-B
Mon 12:32:15 AM 13.7250 -69.1770 120° Southeast 457 526 35,000  Level FlightAware ADS-B
Mon 12:32:49 AM 13.6890 -69.1120 120° Southeast 458 527 35,000  Level FlightAware ADS-B
Mon 12:33:24 AM 13.6530 -69.0470 120° Southeast 459 528 35,000  Level FlightAware ADS-B
Mon 12:33:59 AM 13.6160 -68.9800 120° Southeast 459 528 35,000  Level FlightAware ADS-B
Mon 12:34:34 AM 13.5780 -68.9120 120° Southeast 459 528 35,000  Level FlightAware ADS-B
Mon 12:35:15 AM 13.5350 -68.8350 120° Southeast 459 528 35,000  Level FlightAware ADS-B
Mon 12:35:51 AM 13.4980 -68.7680 120° Southeast 459 528 35,000  Level FlightAware ADS-B
Mon 12:36:25 AM 13.4620 -68.7030 120° Southeast 459 528 35,000  Level FlightAware ADS-B
Mon 12:37:05 AM 13.4190 -68.6260 120° Southeast 460 529 35,000  Level FlightAware ADS-B
Mon 12:37:35 AM 13.3880 -68.5700 120° Southeast 460 529 35,000  Level FlightAware ADS-B
Mon 12:38:10 AM 13.3500 -68.5030 120° Southeast 461 531 35,000  Level FlightAware ADS-B
Mon 12:38:45 AM 13.3130 -68.4370 120° Southeast 461 531 35,000  Level FlightAware ADS-B
Mon 12:39:20 AM 13.2760 -68.3700 120° Southeast 461 531 35,000  Level FlightAware ADS-B
Mon 12:39:56 AM 13.2380 -68.3020 120° Southeast 463 533 35,000  Level FlightAware ADS-B
Mon 12:40:31 AM 13.2000 -68.2350 120° Southeast 463 533 35,000  Level FlightAware ADS-B
Mon 12:41:11 AM 13.1580 -68.1600 120° Southeast 462 532 35,000  Level FlightAware ADS-B
Mon 12:41:51 AM 13.1150 -68.0830 120° Southeast 463 533 35,000  Level FlightAware ADS-B
Mon 12:42:26 AM 13.0780 -68.0170 120° Southeast 462 532 35,000  Level FlightAware ADS-B
Mon 12:42:56 AM 13.0450 -67.9590 120° Southeast 462 532 35,000  Level FlightAware ADS-B
Mon 12:43:32 AM 13.0080 -67.8920 120° Southeast 462 532 35,000  Level FlightAware ADS-B
Mon 12:44:11 AM 12.9660 -67.8180 120° Southeast 462 532 35,000  Level FlightAware ADS-B
Mon 12:44:47 AM 12.9270 -67.7500 120° Southeast 462 532 35,000  Level FlightAware ADS-B
Mon 12:45:17 AM 12.8950 -67.6940 120° Southeast 464 534 35,000  Level FlightAware ADS-B
Mon 12:45:52 AM 12.8430 -67.6380 134° Southeast 462 532 35,000  Level FlightAware ADS-B
Mon 12:46:31 AM 12.7730 -67.5860 144° Southeast 469 540 35,000  Level FlightAware ADS-B
Mon 12:47:07 AM 12.7090 -67.5420 146° Southeast 470 541 35,000  Level FlightAware ADS-B
Mon 12:47:37 AM 12.6530 -67.5030 146° Southeast 469 540 35,000  Level FlightAware ADS-B
Mon 12:48:13 AM 12.5900 -67.4590 146° Southeast 471 542 35,000  Level FlightAware ADS-B
Mon 12:48:47 AM 12.5270 -67.4150 146° Southeast 470 541 35,000  Level FlightAware ADS-B
Mon 12:49:23 AM 12.4640 -67.3710 146° Southeast 470 541 35,000  Level FlightAware ADS-B
Mon 12:49:57 AM 12.4020 -67.3270 145° Southeast 470 541 35,000  Level FlightAware ADS-B
Mon 12:50:33 AM 12.3380 -67.2820 146° Southeast 471 542 35,000  Level FlightAware ADS-B
Mon 12:51:07 AM 12.2760 -67.2390 146° Southeast 471 542 35,000  Level FlightAware ADS-B
Mon 12:51:43 AM 12.2120 -67.1940 146° Southeast 472 543 35,000  Level FlightAware ADS-B
Mon 12:52:18 AM 12.1470 -67.1490 146° Southeast 472 543 35,000  Level FlightAware ADS-B
Mon 12:52:54 AM 12.0830 -67.1040 145° Southeast 472 543 35,000  Level FlightAware ADS-B
Mon 12:53:28 AM 12.0230 -67.0580 143° Southeast 471 542 35,000  Level FlightAware ADS-B
Mon 12:54:04 AM 11.9670 -67.0050 137° Southeast 470 541 35,000  Level FlightAware ADS-B
Mon 12:54:38 AM 11.9120 -66.9520 137° Southeast 470 541 35,000  Level FlightAware ADS-B
Mon 12:55:13 AM 11.8550 -66.8980 137° Southeast 469 540 35,000  Level FlightAware ADS-B
Mon 12:55:48 AM 11.8020 -66.8460 136° Southeast 469 540 35,000  Level FlightAware ADS-B
Mon 12:56:24 AM 11.7450 -66.7920 137° Southeast 462 532 35,000  Level FlightAware ADS-B
Mon 12:56:58 AM 11.6890 -66.7400 138° Southeast 461 531 35,000  Level FlightAware ADS-B
Mon 12:57:33 AM 11.6340 -66.6870 137° Southeast 462 532 35,000  Level FlightAware ADS-B
Mon 12:58:08 AM 11.5780 -66.6360 138° Southeast 461 531 35,000  Level FlightAware ADS-B
Mon 12:58:43 AM 11.5220 -66.5830 137° Southeast 466 536 35,000  Level FlightAware ADS-B
Mon 12:59:19 AM 11.4660 -66.5300 137° Southeast 466 536 35,000  Level FlightAware ADS-B
Mon 12:59:59 AM 11.4010 -66.4680 137° Southeast 466 536 35,000  Level FlightAware ADS-B
Mon 01:00:44 AM 11.3310 -66.4010 137° Southeast 465 535 35,000  Level FlightAware ADS-B
Mon 01:01:15 AM 11.2890 -66.3610 137° Southeast 465 535 35,000  Level FlightAware ADS-B
Mon 01:01:59 AM 11.2270 -66.3000 136° Southeast 465 535 35,000  Level FlightAware ADS-B
Mon 01:02:45 AM 11.1430 -66.2200 137° Southeast 466 536 35,000  Level FlightAware ADS-B
Mon 01:03:23 AM 11.0930 -66.1710 136° Southeast 466 536 35,000  Level FlightAware ADS-B
Mon 01:03:59 AM 11.0450 -66.1240 136° Southeast 466 536 35,000  Level FlightAware ADS-B
Mon 01:04:35 AM 10.9980 -66.0780 136° Southeast 466 536 35,000  Level FlightAware ADS-B
Mon 01:05:11 AM 10.9510 -66.0310 136° Southeast 466 536 35,000  Level FlightAware ADS-B
Mon 01:05:47 AM 10.9030 -65.9840 136° Southeast 466 536 35,000  Level FlightAware ADS-B
Mon 01:06:23 AM 10.8560 -65.9380 136° Southeast 466 536 35,000  Level FlightAware ADS-B
Mon 01:06:59 AM 10.8080 -65.8910 136° Southeast 466 536 35,000  Level FlightAware ADS-B
Mon 01:07:35 AM 10.7610 -65.8440 136° Southeast 466 536 35,000  Level FlightAware ADS-B
Mon 01:08:11 AM 10.7130 -65.7980 137° Southeast 466 536 35,000  Level FlightAware ADS-B
Mon 01:08:47 AM 10.6660 -65.7510 135° Southeast 466 536 35,000  Level FlightAware ADS-B
Mon 01:09:23 AM 10.6180 -65.7040 136° Southeast 466 536 35,000  Level FlightAware ADS-B
Mon 01:10:01 AM 10.5680 -65.6550 136° Southeast 466 536 35,000  Level FlightAware ADS-B
Mon 01:10:37 AM 10.5210 -65.6090 136° Southeast 466 536 35,000  Level FlightAware ADS-B
Mon 01:11:13 AM 10.4730 -65.5620 136° Southeast 466 536 35,000  Level FlightAware ADS-B
Mon 01:11:36 AM 10.2270 -65.5150 169° South 477 549 35,000  Level FlightAware ADS-B
Mon 01:12:17 AM 10.1560 -65.4900 161° South 478 550 35,000  Level FlightAware ADS-B
Mon 01:12:53 AM 10.0920 -65.4680 161° South 478 550 35,000  Level FlightAware ADS-B
Mon 01:13:29 AM 10.0280 -65.4450 161° South 478 550 35,000  Level FlightAware ADS-B
Mon 01:14:05 AM 9.9640 -65.4230 161° South 478 550 35,000  Level FlightAware ADS-B
Mon 01:14:41 AM 9.9000 -65.4010 161° South 478 550 35,000  Level FlightAware ADS-B
Mon 01:15:17 AM 9.8360 -65.3780 161° South 478 550 35,000  Level FlightAware ADS-B
Mon 01:15:53 AM 9.7720 -65.3560 161° South 478 550 35,000  Level FlightAware ADS-B
Mon 01:16:29 AM 9.7080 -65.3340 161° South 478 550 35,000  Level FlightAware ADS-B
Mon 01:17:05 AM 9.6440 -65.3110 160° South 478 550 35,000  Level FlightAware ADS-B
Mon 01:17:41 AM 9.5800 -65.2890 161° South 478 550 35,000  Level FlightAware ADS-B
Mon 01:18:17 AM 9.5160 -65.2670 161° South 478 550 35,000  Level FlightAware ADS-B
Mon 01:18:53 AM 9.4520 -65.2440 160° South 478 550 35,000  Level FlightAware ADS-B
Mon 01:19:29 AM 9.3880 -65.2220 161° South 478 550 35,000  Level FlightAware ADS-B
Mon 01:20:05 AM 9.3240 -65.2000 161° South 478 550 35,000  Level FlightAware ADS-B
Mon 01:20:41 AM 9.2600 -65.1770 160° South 478 550 35,000  Level FlightAware ADS-B
Mon 01:21:17 AM 9.1960 -65.1550 161° South 478 550 35,000 21 Level FlightAware ADS-B
Mon 01:23:00 AM 9.0219 -65.0263 144° Southeast  Level FlightAware Approximate
Mon 01:24:00 AM 8.9205 -64.9514 144° Southeast  Level FlightAware Approximate
Mon 01:25:00 AM 8.8191 -64.8766 144° Southeast  Level FlightAware Approximate
Mon 01:26:00 AM 8.7176 -64.8018 144° Southeast  Level FlightAware Approximate
Mon 01:27:00 AM 8.6162 -64.7270 144° Southeast  Level FlightAware Approximate
Mon 01:28:00 AM 8.5147 -64.6523 144° Southeast  Level FlightAware Approximate
Mon 01:29:00 AM 8.4132 -64.5776 144° Southeast  Level FlightAware Approximate
Mon 01:30:00 AM 8.3117 -64.5029 144° Southeast  Level FlightAware Approximate
Mon 01:31:00 AM 8.2102 -64.4283 144° Southeast  Level FlightAware Approximate
Mon 01:32:00 AM 8.1086 -64.3537 144° Southeast  Level FlightAware Approximate
Mon 01:33:00 AM 8.0071 -64.2792 144° Southeast  Level FlightAware Approximate
Mon 01:34:00 AM 7.9055 -64.2047 144° Southeast  Level FlightAware Approximate
Mon 01:35:00 AM 7.8040 -64.1302 144° Southeast  Level FlightAware Approximate
Mon 01:36:00 AM 7.7024 -64.0558 144° Southeast  Level FlightAware Approximate
Mon 01:37:00 AM 7.6008 -63.9814 144° Southeast  Level FlightAware Approximate
Mon 01:38:00 AM 7.4992 -63.9070 144° Southeast  Level FlightAware Approximate
Mon 01:39:00 AM 7.3975 -63.8327 144° Southeast  Level FlightAware Approximate
Mon 01:40:00 AM 7.2959 -63.7584 144° Southeast  Level FlightAware Approximate
Mon 01:41:00 AM 7.1943 -63.6841 144° Southeast  Level FlightAware Approximate
Mon 01:42:00 AM 7.0926 -63.6099 144° Southeast  Level FlightAware Approximate
Mon 01:43:00 AM 6.9900 -63.5366 145° Southeast  Level FlightAware Approximate
Mon 01:44:00 AM 6.8867 -63.4647 145° Southeast  Level FlightAware Approximate
Mon 01:45:00 AM 6.7834 -63.3929 145° Southeast  Level FlightAware Approximate
Mon 01:46:00 AM 6.6800 -63.3212 145° Southeast  Level FlightAware Approximate
Mon 01:47:00 AM 6.5767 -63.2495 145° Southeast  Level FlightAware Approximate
Mon 01:48:00 AM 6.4733 -63.1778 145° Southeast  Level FlightAware Approximate
Mon 01:49:00 AM 6.3699 -63.1061 145° Southeast  Level FlightAware Approximate
Mon 01:50:00 AM 6.2665 -63.0345 145° Southeast  Level FlightAware Approximate
Mon 01:51:00 AM 6.1631 -62.9628 145° Southeast  Level FlightAware Approximate
Mon 01:52:00 AM 6.0597 -62.8913 145° Southeast  Level FlightAware Approximate
Mon 01:53:00 AM 5.9563 -62.8197 145° Southeast  Level FlightAware Approximate
Mon 01:54:00 AM 5.8529 -62.7482 145° Southeast  Level FlightAware Approximate
Mon 01:55:00 AM 5.7494 -62.6767 145° Southeast  Level FlightAware Approximate
Mon 01:56:00 AM 5.6460 -62.6052 145° Southeast  Level FlightAware Approximate
Mon 01:57:00 AM 5.5425 -62.5338 145° Southeast  Level FlightAware Approximate
Mon 01:58:00 AM 5.4391 -62.4623 146° Southeast  Level FlightAware Approximate
Mon 01:59:00 AM 5.3356 -62.3909 146° Southeast  Level FlightAware Approximate
Mon 02:00:00 AM 5.2321 -62.3196 146° Southeast  Level FlightAware Approximate
Mon 02:01:00 AM 5.1286 -62.2482 146° Southeast  Level FlightAware Approximate
Mon 02:02:00 AM 5.0251 -62.1769 146° Southeast  Level FlightAware Approximate
Mon 02:03:00 AM 4.9216 -62.1056 146° Southeast  Level FlightAware Approximate
Mon 02:04:00 AM 4.8181 -62.0343 146° Southeast  Level FlightAware Approximate
Mon 02:05:00 AM 4.7146 -61.9630 146° Southeast  Level FlightAware Approximate
Mon 02:06:00 AM 4.6111 -61.8918 146° Southeast  Level FlightAware Approximate
Mon 02:07:00 AM 4.5076 -61.8206 146° Southeast  Level FlightAware Approximate
Mon 02:08:00 AM 4.4040 -61.7494 146° Southeast  Level FlightAware Approximate
Mon 02:09:00 AM 4.3005 -61.6782 146° Southeast  Level FlightAware Approximate
Mon 02:10:00 AM 4.1969 -61.6070 146° Southeast  Level FlightAware Approximate
Mon 02:11:00 AM 4.0934 -61.5359 146° Southeast  Level FlightAware Approximate
Mon 02:12:00 AM 3.9898 -61.4648 146° Southeast  Level FlightAware Approximate
Mon 02:13:00 AM 3.8862 -61.3937 146° Southeast  Level FlightAware Approximate
Mon 02:14:00 AM 3.7827 -61.3226 146° Southeast  Level FlightAware Approximate
Mon 02:15:00 AM 3.6791 -61.2515 146° Southeast  Level FlightAware Approximate
Mon 02:16:00 AM 3.5755 -61.1805 146° Southeast  Level FlightAware Approximate
Mon 02:17:00 AM 3.4719 -61.1094 146° Southeast  Level FlightAware Approximate
Mon 02:18:00 AM 3.3683 -61.0384 146° Southeast  Level FlightAware Approximate
Mon 02:19:00 AM 3.2647 -60.9674 146° Southeast  Level FlightAware Approximate
Mon 02:20:00 AM 3.1611 -60.8964 146° Southeast  Level FlightAware Approximate
Mon 02:21:00 AM 3.0575 -60.8254 146° Southeast  Level FlightAware Approximate
Mon 02:22:00 AM 2.9539 -60.7545 146° Southeast  Level FlightAware Approximate
Mon 02:23:00 AM 2.8502 -60.6835 146° Southeast  Level FlightAware Approximate
Mon 02:24:00 AM 2.7458 -60.6138 146° Southeast  Level FlightAware Approximate
Mon 02:25:00 AM 2.6413 -60.5442 146° Southeast  Level FlightAware Approximate
Mon 02:26:00 AM 2.5368 -60.4745 146° Southeast  Level FlightAware Approximate
Mon 02:27:00 AM 2.4323 -60.4049 146° Southeast  Level FlightAware Approximate
Mon 02:28:00 AM 2.3278 -60.3352 146° Southeast  Level FlightAware Approximate
Mon 02:29:00 AM 2.2233 -60.2656 146° Southeast  Level FlightAware Approximate
Mon 02:30:00 AM 2.1188 -60.1960 146° Southeast  Level FlightAware Approximate
Mon 02:31:00 AM 2.0143 -60.1264 146° Southeast  Level FlightAware Approximate
Mon 02:32:00 AM 1.9098 -60.0568 146° Southeast  Level FlightAware Approximate
Mon 02:33:00 AM 1.8053 -59.9872 146° Southeast  Level FlightAware Approximate
Mon 02:34:00 AM 1.7008 -59.9176 146° Southeast  Level FlightAware Approximate
Mon 02:35:00 AM 1.5963 -59.8481 146° Southeast  Level FlightAware Approximate
Mon 02:36:00 AM 1.4918 -59.7785 146° Southeast  Level FlightAware Approximate
Mon 02:37:00 AM 1.3872 -59.7090 146° Southeast  Level FlightAware Approximate
Mon 02:38:00 AM 1.2827 -59.6394 146° Southeast  Level FlightAware Approximate
Mon 02:39:00 AM 1.1782 -59.5699 146° Southeast  Level FlightAware Approximate
Mon 02:40:00 AM 1.0737 -59.5003 146° Southeast  Level FlightAware Approximate
Mon 02:41:00 AM 0.9692 -59.4308 146° Southeast  Level FlightAware Approximate
Mon 02:42:00 AM 0.8646 -59.3613 146° Southeast  Level FlightAware Approximate
Mon 02:43:00 AM 0.7601 -59.2917 146° Southeast  Level FlightAware Approximate
Mon 02:44:00 AM 0.6556 -59.2222 146° Southeast  Level FlightAware Approximate
Mon 02:45:00 AM 0.5510 -59.1527 146° Southeast  Level FlightAware Approximate
Mon 02:46:00 AM 0.4465 -59.0832 146° Southeast  Level FlightAware Approximate
Mon 02:47:00 AM 0.3420 -59.0137 146° Southeast  Level FlightAware Approximate
Mon 02:48:00 AM 0.2374 -58.9442 146° Southeast  Level FlightAware Approximate
Mon 02:49:00 AM 0.1329 -58.8746 146° Southeast  Level FlightAware Approximate
Mon 02:50:00 AM 0.0284 -58.8051 146° Southeast  Level FlightAware Approximate
Mon 02:51:00 AM -0.0762 -58.7356 146° Southeast  Level FlightAware Approximate
Mon 02:52:00 AM -0.1807 -58.6661 146° Southeast  Level FlightAware Approximate
Mon 02:53:00 AM -0.2852 -58.5966 146° Southeast  Level FlightAware Approximate
Mon 02:54:00 AM -0.3897 -58.5271 146° Southeast  Level FlightAware Approximate
Mon 02:54:07 AM -1.3280 -59.7910 146° Southeast 454 522 37,000  Level FlightAware ADS-B
Mon 02:54:43 AM -1.4000 -59.8060 192° South 453 521 37,000  Level FlightAware ADS-B
Mon 02:55:15 AM -1.4680 -59.8200 192° South 453 521 37,000  Level FlightAware ADS-B
Mon 02:55:51 AM -1.5410 -59.8350 192° South 453 521 37,000  Level FlightAware ADS-B
Mon 02:56:28 AM -1.6180 -59.8510 192° South 452 520 37,000  Level FlightAware ADS-B
Mon 02:56:59 AM -1.6810 -59.8640 192° South 452 520 37,000  Level FlightAware ADS-B
Mon 02:57:37 AM -1.7610 -59.8800 191° South 451 519 37,000  Level FlightAware ADS-B
Mon 02:58:13 AM -1.8340 -59.8950 192° South 450 518 37,000  Level FlightAware ADS-B
Mon 02:58:47 AM -1.9040 -59.9090 191° South 449 517 37,000  Level FlightAware ADS-B
Mon 02:59:23 AM -1.9760 -59.9240 192° South 448 516 37,000  Level FlightAware ADS-B
Mon 02:59:57 AM -2.0450 -59.9380 191° South 447 514 37,000  Level FlightAware ADS-B
Mon 03:00:33 AM -2.1190 -59.9530 191° South 446 513 37,000  Level FlightAware ADS-B
Mon 03:01:09 AM -2.1930 -59.9680 191° South 446 513 37,000  Level FlightAware ADS-B
Mon 03:01:41 AM -2.2580 -59.9820 192° South 446 513 37,000  Level FlightAware ADS-B
Mon 03:02:17 AM -2.3320 -59.9970 191° South 446 513 37,000  Level FlightAware ADS-B
Mon 03:02:53 AM -2.4040 -60.0090 189° South 448 516 37,000  Level FlightAware ADS-B
Mon 03:03:25 AM -2.4690 -60.0160 186° South 448 516 37,000  Level FlightAware ADS-B
Mon 03:04:01 AM -2.5450 -60.0230 185° South 449 517 37,000  Level FlightAware ADS-B
Mon 03:04:37 AM -2.6210 -60.0300 185° South 450 518 37,000  Level FlightAware ADS-B
Mon 03:05:13 AM -2.6950 -60.0370 185° South 451 519 37,000  Level FlightAware ADS-B
Mon 03:05:45 AM -2.7610 -60.0440 186° South 450 518 37,000  Level FlightAware ADS-B
Mon 03:06:21 AM -2.8350 -60.0510 185° South 449 517 37,000  Level FlightAware ADS-B
Mon 03:06:57 AM -2.9110 -60.0590 186° South 450 518 37,000  Level FlightAware ADS-B
Mon 03:07:33 AM -2.9860 -60.0660 185° South 449 517 37,000  Level FlightAware ADS-B
Mon 03:08:02 AM -3.0450 -60.0600 174° South 454 522 37,000  Level FlightAware ADS-B
Mon 03:08:33 AM -3.1080 -60.0440 166° South 454 522 37,000  Level FlightAware ADS-B
Mon 03:09:11 AM -3.1860 -60.0240 166° South 454 522 37,000  Level FlightAware ADS-B
Mon 03:09:47 AM -3.2610 -60.0070 167° South 454 522 37,000  Level FlightAware ADS-B
Mon 03:10:21 AM -3.3320 -59.9960 171° South 454 522 37,000  Level FlightAware ADS-B
Mon 03:10:57 AM -3.4080 -59.9840 171° South 454 522 37,000  Level FlightAware ADS-B
Mon 03:11:29 AM -3.4740 -59.9730 171° South 454 522 37,000  Level FlightAware ADS-B
Mon 03:12:01 AM -3.5400 -59.9590 168° South 456 525 37,000  Level FlightAware ADS-B
Mon 03:12:40 AM -3.6190 -59.9380 165° South 456 525 37,000  Level FlightAware ADS-B
Mon 03:13:16 AM -3.6920 -59.9190 165° South 457 526 37,000  Level FlightAware ADS-B
Mon 03:13:51 AM -3.7630 -59.8990 164° South 458 527 37,000  Level FlightAware ADS-B
Mon 03:14:23 AM -3.8300 -59.8800 164° South 459 528 37,000  Level FlightAware ADS-B
Mon 03:14:57 AM -3.8970 -59.8610 164° South 458 527 37,000  Level FlightAware ADS-B
Mon 03:15:35 AM -3.9780 -59.8380 164° South 458 527 37,000  Level FlightAware ADS-B
Mon 03:16:07 AM -4.0400 -59.8200 164° South 459 528 37,000  Level FlightAware ADS-B
Mon 03:16:45 AM -4.1060 -59.7990 162° South 459 528 37,000  Level FlightAware ADS-B
Mon 03:17:29 AM -4.2030 -59.7730 165° South 458 527 37,000  Level FlightAware ADS-B
Mon 03:18:05 AM -4.2650 -59.7550 164° South 458 527 37,000  Level FlightAware ADS-B
Mon 03:18:42 AM -4.3290 -59.7370 164° South 458 527 37,000  Level FlightAware ADS-B
Mon 03:19:18 AM -4.3910 -59.7190 164° South 458 527 37,000  Level FlightAware ADS-B
Mon 03:19:54 AM -4.4540 -59.7010 164° South 458 527 37,000  Level FlightAware ADS-B
Mon 03:20:30 AM -4.5160 -59.6830 164° South 458 527 37,000  Level FlightAware ADS-B
Mon 03:21:06 AM -4.5780 -59.6650 164° South 458 527 37,000  Level FlightAware ADS-B
Mon 03:21:43 AM -4.6420 -59.6470 164° South 458 527 37,000  Level FlightAware ADS-B
Mon 03:22:19 AM -4.7050 -59.6290 164° South 458 527 37,000  Level FlightAware ADS-B
Mon 03:22:55 AM -4.7670 -59.6110 164° South 458 527 37,000  Level FlightAware ADS-B
Mon 03:23:31 AM -4.8290 -59.5930 164° South 458 527 37,000  Level FlightAware ADS-B
Mon 03:24:07 AM -4.8920 -59.5750 164° South 458 527 37,000  Level FlightAware ADS-B
Mon 03:24:41 AM -4.9510 -59.5580 164° South 458 527 37,000  Level FlightAware ADS-B
Mon 03:25:15 AM -5.0090 -59.5410 164° South 458 527 37,000  Level FlightAware ADS-B
Mon 03:25:51 AM -5.0720 -59.5230 164° South 458 527 37,000  Level FlightAware ADS-B
Mon 03:26:27 AM -5.1340 -59.5050 164° South 458 527 37,000 -49 Level FlightAware ADS-B
Mon 03:29:00 AM -5.3571 -59.2745 134° Southeast  Level Estimated
Mon 03:30:00 AM -5.4446 -59.1840 134° Southeast  Level Estimated
Mon 03:31:00 AM -5.5320 -59.0935 134° Southeast  Level Estimated
Mon 03:32:00 AM -5.6194 -59.0030 134° Southeast  Level Estimated
Mon 03:33:00 AM -5.7069 -58.9125 134° Southeast  Level Estimated
Mon 03:34:00 AM -5.7943 -58.8219 134° Southeast  Level Estimated
Mon 03:35:00 AM -5.8817 -58.7314 134° Southeast  Level Estimated
Mon 03:36:00 AM -5.9690 -58.6407 134° Southeast  Level Estimated
Mon 03:37:00 AM -6.0564 -58.5501 134° Southeast  Level Estimated
Mon 03:38:00 AM -6.1438 -58.4594 134° Southeast  Level Estimated
Mon 03:39:00 AM -6.2311 -58.3687 134° Southeast  Level Estimated
Mon 03:40:00 AM -6.3184 -58.2780 134° Southeast  Level Estimated
Mon 03:41:00 AM -6.4057 -58.1872 134° Southeast  Level Estimated
Mon 03:42:00 AM -6.4930 -58.0964 134° Southeast  Level Estimated
Mon 03:43:00 AM -6.5803 -58.0056 134° Southeast  Level Estimated
Mon 03:44:00 AM -6.6675 -57.9147 134° Southeast  Level Estimated
Mon 03:45:00 AM -6.7548 -57.8239 134° Southeast  Level Estimated
Mon 03:46:00 AM -6.8420 -57.7329 134° Southeast  Level Estimated
Mon 03:47:00 AM -6.9292 -57.6420 134° Southeast  Level Estimated
Mon 03:48:00 AM -7.0164 -57.5510 134° Southeast  Level Estimated
Mon 03:49:00 AM -7.1036 -57.4600 134° Southeast  Level Estimated
Mon 03:50:00 AM -7.1907 -57.3689 134° Southeast  Level Estimated
Mon 03:51:00 AM -7.2778 -57.2778 134° Southeast  Level Estimated
Mon 03:52:00 AM -7.3650 -57.1867 134° Southeast  Level Estimated
Mon 03:53:00 AM -7.4521 -57.0955 134° Southeast  Level Estimated
Mon 03:54:00 AM -7.5391 -57.0043 134° Southeast  Level Estimated
Mon 03:55:00 AM -7.6262 -56.9131 134° Southeast  Level Estimated
Mon 03:56:00 AM -7.7132 -56.8218 134° Southeast  Level Estimated
Mon 03:57:00 AM -7.8003 -56.7305 134° Southeast  Level Estimated
Mon 03:58:00 AM -7.8873 -56.6391 134° Southeast  Level Estimated
Mon 03:59:00 AM -7.9742 -56.5477 134° Southeast  Level Estimated
Mon 04:00:00 AM -8.0612 -56.4563 134° Southeast  Level Estimated
Mon 04:01:00 AM -8.1481 -56.3648 134° Southeast  Level Estimated
Mon 04:02:00 AM -8.2351 -56.2733 134° Southeast  Level Estimated
Mon 04:03:00 AM -8.3220 -56.1818 134° Southeast  Level Estimated
Mon 04:04:00 AM -8.4088 -56.0902 134° Southeast  Level Estimated
Mon 04:05:00 AM -8.4957 -55.9986 134° Southeast  Level Estimated
Mon 04:06:00 AM -8.5825 -55.9069 134° Southeast  Level Estimated
Mon 04:07:00 AM -8.6694 -55.8152 134° Southeast  Level Estimated
Mon 04:08:00 AM -8.7562 -55.7234 134° Southeast  Level Estimated
Mon 04:09:00 AM -8.8429 -55.6316 134° Southeast  Level Estimated
Mon 04:10:00 AM -8.9297 -55.5398 134° Southeast  Level Estimated
Mon 04:11:00 AM -9.0164 -55.4479 134° Southeast  Level Estimated
Mon 04:12:00 AM -9.1031 -55.3560 134° Southeast  Level Estimated
Mon 04:13:00 AM -9.1898 -55.2640 134° Southeast  Level Estimated
Mon 04:14:00 AM -9.2764 -55.1720 134° Southeast  Level Estimated
Mon 04:15:00 AM -9.3631 -55.0799 134° Southeast  Level Estimated
Mon 04:16:00 AM -9.4497 -54.9878 134° Southeast  Level Estimated
Mon 04:17:00 AM -9.5363 -54.8957 134° Southeast  Level Estimated
Mon 04:18:00 AM -9.6228 -54.8035 134° Southeast  Level Estimated
Mon 04:19:00 AM -9.7094 -54.7112 134° Southeast  Level Estimated
Mon 04:20:00 AM -9.7959 -54.6189 134° Southeast  Level Estimated
Mon 04:21:00 AM -9.8824 -54.5266 134° Southeast  Level Estimated
Mon 04:22:00 AM -9.9688 -54.4342 134° Southeast  Level Estimated
Mon 04:23:00 AM -10.0553 -54.3417 134° Southeast  Level Estimated
Mon 04:24:00 AM -10.1417 -54.2492 134° Southeast  Level Estimated
Mon 04:25:00 AM -10.2281 -54.1567 133° Southeast  Level Estimated
Mon 04:26:00 AM -10.3144 -54.0641 133° Southeast  Level Estimated
Mon 04:27:00 AM -10.4008 -53.9715 133° Southeast  Level Estimated
Mon 04:28:00 AM -10.4871 -53.8788 133° Southeast  Level Estimated
Mon 04:29:00 AM -10.5733 -53.7860 133° Southeast  Level Estimated
Mon 04:30:00 AM -10.6596 -53.6932 133° Southeast  Level Estimated
Mon 04:31:00 AM -10.7458 -53.6004 133° Southeast  Level Estimated
Mon 04:32:00 AM -10.8320 -53.5075 133° Southeast  Level Estimated
Mon 04:33:00 AM -10.9182 -53.4145 133° Southeast  Level Estimated
Mon 04:34:00 AM -11.0043 -53.3215 133° Southeast  Level Estimated
Mon 04:35:00 AM -11.0905 -53.2284 133° Southeast  Level Estimated
Mon 04:36:00 AM -11.1765 -53.1353 133° Southeast  Level Estimated
Mon 04:37:00 AM -11.2626 -53.0421 133° Southeast  Level Estimated
Mon 04:38:00 AM -11.3486 -52.9489 133° Southeast  Level Estimated
Mon 04:39:00 AM -11.4346 -52.8556 133° Southeast  Level Estimated
Mon 04:40:00 AM -11.5206 -52.7623 133° Southeast  Level Estimated
Mon 04:41:00 AM -11.6065 -52.6689 133° Southeast  Level Estimated
Mon 04:42:00 AM -11.6924 -52.5754 133° Southeast  Level Estimated
Mon 04:43:00 AM -11.7783 -52.4819 133° Southeast  Level Estimated
Mon 04:44:00 AM -11.8642 -52.3883 133° Southeast  Level Estimated
Mon 04:45:00 AM -11.9500 -52.2947 133° Southeast  Level Estimated
Mon 04:46:00 AM -12.0358 -52.2010 133° Southeast  Level Estimated
Mon 04:47:00 AM -12.1215 -52.1072 133° Southeast  Level Estimated
Mon 04:48:00 AM -12.2072 -52.0134 133° Southeast  Level Estimated
Mon 04:49:00 AM -12.2929 -51.9195 133° Southeast  Level Estimated
Mon 04:50:00 AM -12.3786 -51.8256 133° Southeast  Level Estimated
Mon 04:51:00 AM -12.4642 -51.7316 133° Southeast  Level Estimated
Mon 04:52:00 AM -12.5498 -51.6375 133° Southeast  Level Estimated
Mon 04:53:00 AM -12.6354 -51.5434 133° Southeast  Level Estimated
Mon 04:54:00 AM -12.7209 -51.4492 133° Southeast  Level Estimated
Mon 04:55:00 AM -12.8064 -51.3549 133° Southeast  Level Estimated
Mon 04:56:00 AM -12.8919 -51.2606 133° Southeast  Level Estimated
Mon 04:57:00 AM -12.9773 -51.1662 133° Southeast  Level Estimated
Mon 04:58:00 AM -13.0627 -51.0718 133° Southeast  Level Estimated
Mon 04:59:00 AM -13.1481 -50.9773 133° Southeast  Level Estimated
Mon 05:00:00 AM -13.2334 -50.8827 133° Southeast  Level Estimated
Mon 05:01:00 AM -13.3187 -50.7881 133° Southeast  Level Estimated
Mon 05:02:00 AM -13.4039 -50.6934 133° Southeast  Level Estimated
Mon 05:03:00 AM -13.4892 -50.5986 133° Southeast  Level Estimated
Mon 05:04:00 AM -13.5743 -50.5038 133° Southeast  Level Estimated
Mon 05:05:00 AM -13.6595 -50.4089 133° Southeast  Level Estimated
Mon 05:06:00 AM -13.7446 -50.3139 133° Southeast  Level Estimated
Mon 05:07:00 AM -13.8297 -50.2188 133° Southeast  Level Estimated
Mon 05:07:45 AM -14.8170 -49.2370 133° Southeast 513 590 32,000  Level FlightAware ADS-B
Mon 05:08:00 AM -13.9147 -50.1237 133° Southeast  Level Estimated
Mon 05:08:20 AM -14.8790 -49.1810 139° Southeast 506 582 30,600  Level FlightAware ADS-B
Mon 05:08:55 AM -14.9430 -49.1250 140° Southeast 494 568 29,300 -2,100 Descending FlightAware ADS-B
Mon 05:09:40 AM -15.0130 -49.0620 139° Southeast 481 554 27,800 -2,160 Descending FlightAware ADS-B
Mon 05:10:10 AM -15.0700 -49.0120 140° Southeast 471 542 26,600 -2,215 Descending FlightAware ADS-B
Mon 05:10:45 AM -15.1240 -48.9630 139° Southeast 462 532 25,400 -2,143 Descending FlightAware ADS-B
Mon 05:11:20 AM -15.1810 -48.9130 140° Southeast 452 520 24,100 -2,057 Descending FlightAware ADS-B
Mon 05:11:55 AM -15.2370 -48.8630 139° Southeast 437 503 23,000 -1,886 Descending FlightAware ADS-B
Mon 05:12:30 AM -15.2910 -48.8150 139° Southeast 424 488 21,900 -1,886 Descending FlightAware ADS-B
Mon 05:13:05 AM -15.3390 -48.7670 136° Southeast 416 479 20,800 -1,886 Descending FlightAware ADS-B
Mon 05:13:40 AM -15.3800 -48.7120 128° Southeast 406 467 19,700 -1,886 Descending FlightAware ADS-B
Mon 05:14:15 AM -15.4190 -48.6580 127° Southeast 396 456 18,600 -1,800 Descending FlightAware ADS-B
Mon 05:14:50 AM -15.4560 -48.6060 126° Southeast 385 443 17,600 -1,714 Descending FlightAware ADS-B
Mon 05:15:25 AM -15.4920 -48.5550 126° Southeast 373 429 16,600 -1,714 Descending FlightAware ADS-B
Mon 05:16:00 AM -15.5280 -48.5040 126° Southeast 359 413 15,600 -1,714 Descending FlightAware ADS-B
Mon 05:16:35 AM -15.5610 -48.4560 126° Southeast 344 396 14,600 -1,800 Descending FlightAware ADS-B
Mon 05:17:10 AM -15.5930 -48.4110 126° Southeast 324 373 13,500 -1,543 Descending FlightAware ADS-B
Mon 05:17:45 AM -15.6230 -48.3690 127° Southeast 295 339 12,800 -943 Descending FlightAware ADS-B
Mon 05:18:20 AM -15.6500 -48.3310 126° Southeast 265 305 12,400 -771 Descending FlightAware ADS-B
Mon 05:18:55 AM -15.6740 -48.2970 126° Southeast 240 276 11,900 -857 Descending FlightAware ADS-B
Mon 05:19:30 AM -15.6940 -48.2670 125° Southeast 215 247 11,400 -1,114 Descending FlightAware ADS-B
Mon 05:20:05 AM -15.7150 -48.2380 127° Southeast 205 236 10,600 -1,500 Descending FlightAware ADS-B
Mon 05:20:30 AM -15.7290 -48.2180 126° Southeast 205 236 9,900 -1,650 Descending FlightAware ADS-B
Mon 05:20:45 AM -15.7370 -48.2070 127° Southeast 202 232 9,500 -1,543 Descending FlightAware ADS-B
Mon 05:21:05 AM -15.7480 -48.1910 126° Southeast 200 230 9,000 -1,800 Descending FlightAware ADS-B
Mon 05:21:25 AM -15.7590 -48.1750 126° Southeast 203 234 8,300 -1,950 Descending FlightAware ADS-B
Mon 05:21:45 AM -15.7700 -48.1590 126° Southeast 208 239 7,700 -1,650 Descending FlightAware ADS-B
Mon 05:22:05 AM -15.7830 -48.1440 132° Southeast 214 246 7,200 -1,680 Descending FlightAware ADS-B
Mon 05:22:10 AM -15.7870 -48.1420 154° Southeast 215 247 7,000 -1,800 Descending FlightAware ADS-B
Mon 05:22:15 AM -15.7920 -48.1390 150° Southeast 216 249 6,900 -1,000 Descending FlightAware ADS-B
Mon 05:22:40 AM -15.8160 -48.1320 164° South 213 245 6,500 -933 Descending FlightAware ADS-B
Mon 05:23:00 AM -15.8340 -48.1270 165° South 208 239 6,200 -750 Descending FlightAware ADS-B
Mon 05:23:20 AM -15.8530 -48.1220 166° South 199 229 6,000 -150 Descending FlightAware ADS-B
Mon 05:23:40 AM -15.8710 -48.1170 165° South 196 226 6,100 171 Climbing FlightAware ADS-B
Mon 05:23:55 AM -15.8830 -48.1110 154° Southeast 191 220 6,100  Level FlightAware ADS-B
Mon 05:24:00 AM -15.8860 -48.1080 136° Southeast 188 216 6,100  Level FlightAware ADS-B
Mon 05:24:11 AM -15.8890 -48.1010 114° Southeast 184 212 6,100  Level FlightAware ADS-B
Mon 05:24:16 AM -15.8900 -48.0960 102° East 183 211 6,100 -600 Level FlightAware ADS-B
Mon 05:24:21 AM -15.8900 -48.0910 90° East 183 211 6,000 -1,000 Descending FlightAware ADS-B
Mon 05:24:46 AM -15.8890 -48.0680 87° East 177 204 5,600 -933 Descending FlightAware ADS-B
Mon 05:25:06 AM -15.8880 -48.0530 86° East 160 184 5,300 -900 Descending FlightAware ADS-B
Mon 05:25:26 AM -15.8870 -48.0370 86° East 144 166 5,000 -750 Descending FlightAware ADS-B
Mon 05:25:46 AM -15.8860 -48.0250 85° East 124 143 4,800 -600 Descending FlightAware ADS-B
Mon 05:26:06 AM -15.8850 -48.0130 85° East 119 137 4,600 -600 Descending FlightAware ADS-B
Mon 05:26:26 AM -15.8850 -48.0020 90° East 118 136 4,400 -533 Descending FlightAware ADS-B
Mon 05:26:51 AM -15.8840 -47.9880 86° East 121 139 4,200 -667 Descending FlightAware ADS-B
Mon 05:27:11 AM -15.8830 -47.9760 85° East 128 147 3,900 -686 Descending FlightAware ADS-B
Mon 05:27:26 AM -15.8820 -47.9660 84° East 131 151 3,800 -686 Descending FlightAware ADS-B
Mon 05:27:46 AM -15.8820 -47.9540 90° East 129 148 3,500 -750 Descending FlightAware ADS-B
Mon 05:28:06 AM -15.8810 -47.9420 85° East 131 151 3,300 -277 Descending FlightAware ADS-B
Mon 05:28:51 AM -15.8790 -47.9200 85° East 121 139 3,200 -55 Descending FlightAware ADS-B
Mon 05:29:56 AM -15.8770 -47.9160 360° North 121 139 3,200  Level FlightAware ADS-B
Mon 05:30:23 AM -15.8770 -47.9030 90° East 121 139 3,200  Level FlightAware ADS-B
Mon 05:31:16 AM -15.8730 -47.9160 360° North 121 139 3,200  Level FlightAware ADS-B
Mon 05:31:43 AM -15.8720 -47.9020 86° East 121 139 3,200  Level FlightAware ADS-B

Login

Don't have an account? Register now (free) for customized features, flight alerts, and more!